sensor_id;sensor_type;location;lat;lon;timestamp;P1;durP1;ratioP1;P2;durP2;ratioP2
9986;SDS011;5033;46.310;11.214;2023-05-31T00:01:13;4.00;;;3.47;;
9986;SDS011;5033;46.310;11.214;2023-05-31T00:03:40;3.83;;;3.45;;
9986;SDS011;5033;46.310;11.214;2023-05-31T00:06:08;4.10;;;3.70;;
9986;SDS011;5033;46.310;11.214;2023-05-31T00:08:37;4.43;;;3.92;;
9986;SDS011;5033;46.310;11.214;2023-05-31T00:11:05;3.60;;;3.30;;
9986;SDS011;5033;46.310;11.214;2023-05-31T00:13:32;3.75;;;3.45;;
9986;SDS011;5033;46.310;11.214;2023-05-31T00:16:00;3.60;;;3.30;;
9986;SDS011;5033;46.310;11.214;2023-05-31T00:18:27;4.00;;;3.60;;
9986;SDS011;5033;46.310;11.214;2023-05-31T00:20:54;3.53;;;3.22;;
9986;SDS011;5033;46.310;11.214;2023-05-31T00:23:20;3.97;;;3.22;;
9986;SDS011;5033;46.310;11.214;2023-05-31T00:25:49;3.60;;;3.30;;
9986;SDS011;5033;46.310;11.214;2023-05-31T00:28:16;4.25;;;3.95;;
9986;SDS011;5033;46.310;11.214;2023-05-31T00:30:43;4.07;;;3.63;;
9986;SDS011;5033;46.310;11.214;2023-05-31T00:33:10;3.67;;;3.38;;
9986;SDS011;5033;46.310;11.214;2023-05-31T00:35:37;4.15;;;3.40;;
9986;SDS011;5033;46.310;11.214;2023-05-31T00:38:05;3.45;;;3.15;;
9986;SDS011;5033;46.310;11.214;2023-05-31T00:40:32;4.03;;;3.63;;
9986;SDS011;5033;46.310;11.214;2023-05-31T00:43:01;3.78;;;3.47;;
9986;SDS011;5033;46.310;11.214;2023-05-31T00:45:28;3.90;;;3.60;;
9986;SDS011;5033;46.310;11.214;2023-05-31T00:47:57;3.83;;;3.42;;
9986;SDS011;5033;46.310;11.214;2023-05-31T00:50:26;3.42;;;3.13;;
9986;SDS011;5033;46.310;11.214;2023-05-31T00:52:54;3.45;;;3.15;;
9986;SDS011;5033;46.310;11.214;2023-05-31T00:55:21;3.35;;;3.00;;
9986;SDS011;5033;46.310;11.214;2023-05-31T00:57:49;3.30;;;3.00;;
9986;SDS011;5033;46.310;11.214;2023-05-31T01:00:18;3.30;;;3.10;;
9986;SDS011;5033;46.310;11.214;2023-05-31T01:02:46;3.35;;;3.05;;
9986;SDS011;5033;46.310;11.214;2023-05-31T01:05:15;3.50;;;3.20;;
9986;SDS011;5033;46.310;11.214;2023-05-31T01:07:43;3.45;;;3.15;;
9986;SDS011;5033;46.310;11.214;2023-05-31T01:10:10;3.40;;;3.10;;
9986;SDS011;5033;46.310;11.214;2023-05-31T01:12:41;3.75;;;3.35;;
9986;SDS011;5033;46.310;11.214;2023-05-31T01:15:21;3.05;;;2.85;;
9986;SDS011;5033;46.310;11.214;2023-05-31T01:17:51;2.95;;;2.75;;
9986;SDS011;5033;46.310;11.214;2023-05-31T01:20:26;3.47;;;3.17;;
9986;SDS011;5033;46.310;11.214;2023-05-31T01:23:11;3.65;;;3.35;;
9986;SDS011;5033;46.310;11.214;2023-05-31T01:25:58;3.58;;;3.28;;
9986;SDS011;5033;46.310;11.214;2023-05-31T01:28:44;4.43;;;4.03;;
9986;SDS011;5033;46.310;11.214;2023-05-31T01:31:16;3.63;;;3.33;;
9986;SDS011;5033;46.310;11.214;2023-05-31T01:33:46;5.30;;;4.20;;
9986;SDS011;5033;46.310;11.214;2023-05-31T01:36:14;4.05;;;3.65;;
9986;SDS011;5033;46.310;11.214;2023-05-31T01:38:41;3.97;;;3.50;;
9986;SDS011;5033;46.310;11.214;2023-05-31T01:41:08;3.63;;;3.33;;
9986;SDS011;5033;46.310;11.214;2023-05-31T01:43:39;3.55;;;3.25;;
9986;SDS011;5033;46.310;11.214;2023-05-31T01:46:09;3.15;;;2.95;;
9986;SDS011;5033;46.310;11.214;2023-05-31T01:48:38;2.80;;;2.60;;
9986;SDS011;5033;46.310;11.214;2023-05-31T01:51:07;3.60;;;3.30;;
9986;SDS011;5033;46.310;11.214;2023-05-31T01:53:37;3.45;;;3.15;;
9986;SDS011;5033;46.310;11.214;2023-05-31T01:56:04;3.92;;;3.53;;
9986;SDS011;5033;46.310;11.214;2023-05-31T01:58:31;3.20;;;3.00;;
9986;SDS011;5033;46.310;11.214;2023-05-31T02:01:01;3.15;;;2.92;;
9986;SDS011;5033;46.310;11.214;2023-05-31T02:03:29;3.47;;;3.20;;
9986;SDS011;5033;46.310;11.214;2023-05-31T02:05:56;3.35;;;3.08;;
9986;SDS011;5033;46.310;11.214;2023-05-31T02:08:24;4.40;;;4.00;;
9986;SDS011;5033;46.310;11.214;2023-05-31T02:10:51;3.88;;;3.58;;
9986;SDS011;5033;46.310;11.214;2023-05-31T02:13:19;4.53;;;4.00;;
9986;SDS011;5033;46.310;11.214;2023-05-31T02:15:46;4.70;;;4.30;;
9986;SDS011;5033;46.310;11.214;2023-05-31T02:18:13;4.57;;;4.18;;
9986;SDS011;5033;46.310;11.214;2023-05-31T02:20:43;3.80;;;3.50;;
9986;SDS011;5033;46.310;11.214;2023-05-31T02:23:10;3.97;;;3.58;;
9986;SDS011;5033;46.310;11.214;2023-05-31T02:25:37;4.57;;;3.83;;
9986;SDS011;5033;46.310;11.214;2023-05-31T02:28:04;3.75;;;3.45;;
9986;SDS011;5033;46.310;11.214;2023-05-31T02:30:31;4.05;;;3.63;;
9986;SDS011;5033;46.310;11.214;2023-05-31T02:33:01;3.78;;;3.47;;
9986;SDS011;5033;46.310;11.214;2023-05-31T02:35:28;3.85;;;3.45;;
9986;SDS011;5033;46.310;11.214;2023-05-31T02:37:56;4.15;;;3.75;;
9986;SDS011;5033;46.310;11.214;2023-05-31T02:40:23;3.80;;;3.50;;
9986;SDS011;5033;46.310;11.214;2023-05-31T02:42:50;4.32;;;3.92;;
9986;SDS011;5033;46.310;11.214;2023-05-31T02:45:17;3.70;;;3.38;;
9986;SDS011;5033;46.310;11.214;2023-05-31T02:47:44;4.93;;;4.07;;
9986;SDS011;5033;46.310;11.214;2023-05-31T02:50:11;3.58;;;3.28;;
9986;SDS011;5033;46.310;11.214;2023-05-31T02:52:38;3.97;;;3.35;;
9986;SDS011;5033;46.310;11.214;2023-05-31T02:55:07;4.10;;;3.70;;
9986;SDS011;5033;46.310;11.214;2023-05-31T02:57:34;3.88;;;3.50;;
9986;SDS011;5033;46.310;11.214;2023-05-31T03:00:02;4.60;;;3.63;;
9986;SDS011;5033;46.310;11.214;2023-05-31T03:02:36;4.10;;;3.72;;
9986;SDS011;5033;46.310;11.214;2023-05-31T03:05:03;3.75;;;3.45;;
9986;SDS011;5033;46.310;11.214;2023-05-31T03:07:31;3.90;;;3.50;;
9986;SDS011;5033;46.310;11.214;2023-05-31T03:09:58;4.03;;;3.55;;
9986;SDS011;5033;46.310;11.214;2023-05-31T03:12:26;4.07;;;3.67;;
9986;SDS011;5033;46.310;11.214;2023-05-31T03:14:53;3.38;;;3.08;;
9986;SDS011;5033;46.310;11.214;2023-05-31T03:17:20;3.60;;;3.30;;
9986;SDS011;5033;46.310;11.214;2023-05-31T03:19:47;4.50;;;3.55;;
9986;SDS011;5033;46.310;11.214;2023-05-31T03:22:14;3.97;;;3.60;;
9986;SDS011;5033;46.310;11.214;2023-05-31T03:24:41;4.03;;;3.65;;
9986;SDS011;5033;46.310;11.214;2023-05-31T03:27:09;3.50;;;3.20;;
9986;SDS011;5033;46.310;11.214;2023-05-31T03:29:38;3.80;;;3.50;;
9986;SDS011;5033;46.310;11.214;2023-05-31T03:32:07;3.45;;;3.15;;
9986;SDS011;5033;46.310;11.214;2023-05-31T03:34:34;3.70;;;3.38;;
9986;SDS011;5033;46.310;11.214;2023-05-31T03:37:01;3.40;;;3.10;;
9986;SDS011;5033;46.310;11.214;2023-05-31T03:39:28;3.60;;;3.28;;
9986;SDS011;5033;46.310;11.214;2023-05-31T03:41:55;4.00;;;3.70;;
9986;SDS011;5033;46.310;11.214;2023-05-31T03:44:22;5.25;;;3.80;;
9986;SDS011;5033;46.310;11.214;2023-05-31T03:46:50;4.63;;;3.70;;
9986;SDS011;5033;46.310;11.214;2023-05-31T03:49:17;3.75;;;3.45;;
9986;SDS011;5033;46.310;11.214;2023-05-31T03:51:44;3.30;;;3.00;;
9986;SDS011;5033;46.310;11.214;2023-05-31T03:54:11;3.55;;;3.25;;
9986;SDS011;5033;46.310;11.214;2023-05-31T03:56:38;3.92;;;3.63;;
9986;SDS011;5033;46.310;11.214;2023-05-31T03:59:05;3.63;;;3.33;;
9986;SDS011;5033;46.310;11.214;2023-05-31T04:01:32;3.75;;;3.45;;
9986;SDS011;5033;46.310;11.214;2023-05-31T04:04:00;3.50;;;3.20;;
9986;SDS011;5033;46.310;11.214;2023-05-31T04:06:27;3.72;;;3.35;;
9986;SDS011;5033;46.310;11.214;2023-05-31T04:08:54;3.83;;;3.45;;
9986;SDS011;5033;46.310;11.214;2023-05-31T04:11:21;3.50;;;3.20;;
9986;SDS011;5033;46.310;11.214;2023-05-31T04:13:48;5.50;;;3.85;;
9986;SDS011;5033;46.310;11.214;2023-05-31T04:16:15;4.03;;;3.67;;
9986;SDS011;5033;46.310;11.214;2023-05-31T04:18:42;3.72;;;3.42;;
9986;SDS011;5033;46.310;11.214;2023-05-31T04:21:11;3.70;;;3.38;;
9986;SDS011;5033;46.310;11.214;2023-05-31T04:23:38;3.97;;;3.60;;
9986;SDS011;5033;46.310;11.214;2023-05-31T04:26:05;4.10;;;3.72;;
9986;SDS011;5033;46.310;11.214;2023-05-31T04:28:32;4.40;;;3.55;;
9986;SDS011;5033;46.310;11.214;2023-05-31T04:30:59;3.80;;;3.40;;
9986;SDS011;5033;46.310;11.214;2023-05-31T04:33:27;3.70;;;3.30;;
9986;SDS011;5033;46.310;11.214;2023-05-31T04:35:54;4.70;;;3.85;;
9986;SDS011;5033;46.310;11.214;2023-05-31T04:38:24;3.67;;;3.38;;
9986;SDS011;5033;46.310;11.214;2023-05-31T04:40:52;4.28;;;3.88;;
9986;SDS011;5033;46.310;11.214;2023-05-31T04:43:20;3.90;;;3.60;;
9986;SDS011;5033;46.310;11.214;2023-05-31T04:45:48;3.75;;;3.42;;
9986;SDS011;5033;46.310;11.214;2023-05-31T04:48:16;3.47;;;3.17;;
9986;SDS011;5033;46.310;11.214;2023-05-31T04:50:44;3.65;;;3.35;;
9986;SDS011;5033;46.310;11.214;2023-05-31T04:53:11;4.70;;;3.63;;
9986;SDS011;5033;46.310;11.214;2023-05-31T04:55:40;3.47;;;3.17;;
9986;SDS011;5033;46.310;11.214;2023-05-31T04:58:07;3.42;;;3.13;;
9986;SDS011;5033;46.310;11.214;2023-05-31T05:00:34;3.38;;;3.08;;
9986;SDS011;5033;46.310;11.214;2023-05-31T05:03:02;3.40;;;3.10;;
9986;SDS011;5033;46.310;11.214;2023-05-31T05:05:30;5.07;;;3.40;;
9986;SDS011;5033;46.310;11.214;2023-05-31T05:07:57;4.50;;;4.07;;
9986;SDS011;5033;46.310;11.214;2023-05-31T05:10:23;3.65;;;3.35;;
9986;SDS011;5033;46.310;11.214;2023-05-31T05:12:52;3.63;;;3.33;;
9986;SDS011;5033;46.310;11.214;2023-05-31T05:15:19;4.15;;;3.28;;
9986;SDS011;5033;46.310;11.214;2023-05-31T05:17:46;4.43;;;3.63;;
9986;SDS011;5033;46.310;11.214;2023-05-31T05:20:13;3.65;;;3.35;;
9986;SDS011;5033;46.310;11.214;2023-05-31T05:22:40;3.63;;;3.33;;
9986;SDS011;5033;46.310;11.214;2023-05-31T05:25:08;4.10;;;3.70;;
9986;SDS011;5033;46.310;11.214;2023-05-31T05:27:35;3.85;;;3.35;;
9986;SDS011;5033;46.310;11.214;2023-05-31T05:30:04;4.03;;;3.72;;
9986;SDS011;5033;46.310;11.214;2023-05-31T05:32:32;3.90;;;3.60;;
9986;SDS011;5033;46.310;11.214;2023-05-31T05:34:59;5.90;;;5.18;;
9986;SDS011;5033;46.310;11.214;2023-05-31T05:37:26;4.80;;;4.30;;
9986;SDS011;5033;46.310;11.214;2023-05-31T05:39:53;6.38;;;4.53;;
9986;SDS011;5033;46.310;11.214;2023-05-31T05:42:20;4.40;;;4.00;;
9986;SDS011;5033;46.310;11.214;2023-05-31T05:44:48;4.70;;;4.30;;
9986;SDS011;5033;46.310;11.214;2023-05-31T05:47:17;4.28;;;3.95;;
9986;SDS011;5033;46.310;11.214;2023-05-31T05:49:44;4.40;;;4.00;;
9986;SDS011;5033;46.310;11.214;2023-05-31T05:52:11;4.30;;;3.92;;
9986;SDS011;5033;46.310;11.214;2023-05-31T05:54:38;4.22;;;3.83;;
9986;SDS011;5033;46.310;11.214;2023-05-31T05:57:05;4.47;;;4.07;;
9986;SDS011;5033;46.310;11.214;2023-05-31T05:59:33;4.47;;;4.07;;
9986;SDS011;5033;46.310;11.214;2023-05-31T06:02:00;4.72;;;4.30;;
9986;SDS011;5033;46.310;11.214;2023-05-31T06:04:28;4.90;;;4.20;;
9986;SDS011;5033;46.310;11.214;2023-05-31T06:06:55;4.60;;;4.20;;
9986;SDS011;5033;46.310;11.214;2023-05-31T06:09:22;4.68;;;4.22;;
9986;SDS011;5033;46.310;11.214;2023-05-31T06:11:49;3.80;;;3.50;;
9986;SDS011;5033;46.310;11.214;2023-05-31T06:14:16;3.80;;;3.50;;
9986;SDS011;5033;46.310;11.214;2023-05-31T06:16:43;3.60;;;3.30;;
9986;SDS011;5033;46.310;11.214;2023-05-31T06:19:10;4.97;;;4.40;;
9986;SDS011;5033;46.310;11.214;2023-05-31T06:21:38;4.47;;;4.00;;
9986;SDS011;5033;46.310;11.214;2023-05-31T06:24:05;4.53;;;4.13;;
9986;SDS011;5033;46.310;11.214;2023-05-31T06:26:32;4.60;;;4.20;;
9986;SDS011;5033;46.310;11.214;2023-05-31T06:29:00;4.93;;;4.47;;
9986;SDS011;5033;46.310;11.214;2023-05-31T06:31:27;4.90;;;4.40;;
9986;SDS011;5033;46.310;11.214;2023-05-31T06:33:55;5.47;;;4.88;;
9986;SDS011;5033;46.310;11.214;2023-05-31T06:36:22;4.78;;;4.18;;
9986;SDS011;5033;46.310;11.214;2023-05-31T06:38:51;4.85;;;4.35;;
9986;SDS011;5033;46.310;11.214;2023-05-31T06:41:18;4.95;;;4.45;;
9986;SDS011;5033;46.310;11.214;2023-05-31T06:43:45;4.47;;;4.07;;
9986;SDS011;5033;46.310;11.214;2023-05-31T06:46:12;5.22;;;4.72;;
9986;SDS011;5033;46.310;11.214;2023-05-31T06:48:39;4.45;;;4.05;;
9986;SDS011;5033;46.310;11.214;2023-05-31T06:51:06;4.95;;;4.03;;
9986;SDS011;5033;46.310;11.214;2023-05-31T06:53:33;4.68;;;4.07;;
9986;SDS011;5033;46.310;11.214;2023-05-31T06:56:01;3.95;;;3.55;;
9986;SDS011;5033;46.310;11.214;2023-05-31T06:58:28;4.03;;;3.63;;
9986;SDS011;5033;46.310;11.214;2023-05-31T07:00:57;4.13;;;3.72;;
9986;SDS011;5033;46.310;11.214;2023-05-31T07:03:24;5.10;;;3.67;;
9986;SDS011;5033;46.310;11.214;2023-05-31T07:05:51;4.65;;;3.88;;
9986;SDS011;5033;46.310;11.214;2023-05-31T07:08:17;4.35;;;3.80;;
9986;SDS011;5033;46.310;11.214;2023-05-31T07:10:45;4.43;;;3.80;;
9986;SDS011;5033;46.310;11.214;2023-05-31T07:13:13;4.60;;;4.18;;
9986;SDS011;5033;46.310;11.214;2023-05-31T07:15:40;4.32;;;3.90;;
9986;SDS011;5033;46.310;11.214;2023-05-31T07:18:07;3.85;;;3.55;;
9986;SDS011;5033;46.310;11.214;2023-05-31T07:20:34;4.63;;;4.15;;
9986;SDS011;5033;46.310;11.214;2023-05-31T07:23:01;4.47;;;4.05;;
9986;SDS011;5033;46.310;11.214;2023-05-31T07:25:27;4.70;;;4.30;;
9986;SDS011;5033;46.310;11.214;2023-05-31T07:27:55;5.90;;;4.50;;
9986;SDS011;5033;46.310;11.214;2023-05-31T07:30:23;4.82;;;4.43;;
9986;SDS011;5033;46.310;11.214;2023-05-31T07:32:50;4.25;;;3.85;;
9986;SDS011;5033;46.310;11.214;2023-05-31T07:35:17;4.55;;;4.15;;
9986;SDS011;5033;46.310;11.214;2023-05-31T07:37:44;5.88;;;4.28;;
9986;SDS011;5033;46.310;11.214;2023-05-31T07:40:11;4.30;;;3.90;;
9986;SDS011;5033;46.310;11.214;2023-05-31T07:42:40;4.32;;;3.80;;
9986;SDS011;5033;46.310;11.214;2023-05-31T07:45:09;4.65;;;4.25;;
9986;SDS011;5033;46.310;11.214;2023-05-31T07:47:38;4.25;;;3.95;;
9986;SDS011;5033;46.310;11.214;2023-05-31T07:50:05;4.32;;;3.92;;
9986;SDS011;5033;46.310;11.214;2023-05-31T07:52:33;4.40;;;4.00;;
9986;SDS011;5033;46.310;11.214;2023-05-31T07:55:00;4.53;;;3.72;;
9986;SDS011;5033;46.310;11.214;2023-05-31T07:57:28;4.68;;;4.28;;
9986;SDS011;5033;46.310;11.214;2023-05-31T07:59:55;4.40;;;4.00;;
9986;SDS011;5033;46.310;11.214;2023-05-31T08:02:21;4.78;;;4.28;;
9986;SDS011;5033;46.310;11.214;2023-05-31T08:04:50;4.78;;;4.38;;
9986;SDS011;5033;46.310;11.214;2023-05-31T08:07:17;4.28;;;3.85;;
9986;SDS011;5033;46.310;11.214;2023-05-31T08:09:43;4.28;;;3.88;;
9986;SDS011;5033;46.310;11.214;2023-05-31T08:12:12;6.85;;;4.55;;
9986;SDS011;5033;46.310;11.214;2023-05-31T08:14:39;4.68;;;4.18;;
9986;SDS011;5033;46.310;11.214;2023-05-31T08:17:06;4.90;;;4.28;;
9986;SDS011;5033;46.310;11.214;2023-05-31T08:19:33;8.60;;;4.43;;
9986;SDS011;5033;46.310;11.214;2023-05-31T08:22:01;4.78;;;4.22;;
9986;SDS011;5033;46.310;11.214;2023-05-31T08:24:29;5.90;;;3.90;;
9986;SDS011;5033;46.310;11.214;2023-05-31T08:26:56;6.43;;;4.70;;
9986;SDS011;5033;46.310;11.214;2023-05-31T08:29:23;4.75;;;4.25;;
9986;SDS011;5033;46.310;11.214;2023-05-31T08:31:50;4.60;;;4.20;;
9986;SDS011;5033;46.310;11.214;2023-05-31T08:34:17;4.93;;;4.43;;
9986;SDS011;5033;46.310;11.214;2023-05-31T08:36:44;6.55;;;4.22;;
9986;SDS011;5033;46.310;11.214;2023-05-31T08:39:13;4.63;;;4.22;;
9986;SDS011;5033;46.310;11.214;2023-05-31T08:41:42;4.85;;;4.35;;
9986;SDS011;5033;46.310;11.214;2023-05-31T08:44:17;4.30;;;3.90;;
9986;SDS011;5033;46.310;11.214;2023-05-31T08:46:46;4.63;;;4.20;;
9986;SDS011;5033;46.310;11.214;2023-05-31T08:49:14;5.10;;;4.20;;
9986;SDS011;5033;46.310;11.214;2023-05-31T08:51:43;4.20;;;3.80;;
9986;SDS011;5033;46.310;11.214;2023-05-31T08:54:11;4.97;;;4.03;;
9986;SDS011;5033;46.310;11.214;2023-05-31T08:56:40;4.18;;;3.80;;
9986;SDS011;5033;46.310;11.214;2023-05-31T08:59:08;4.70;;;4.30;;
9986;SDS011;5033;46.310;11.214;2023-05-31T09:01:37;4.45;;;3.97;;
9986;SDS011;5033;46.310;11.214;2023-05-31T09:04:04;4.45;;;3.75;;
9986;SDS011;5033;46.310;11.214;2023-05-31T09:06:32;3.80;;;3.50;;
9986;SDS011;5033;46.310;11.214;2023-05-31T09:08:59;6.00;;;4.43;;
9986;SDS011;5033;46.310;11.214;2023-05-31T09:11:27;4.07;;;3.67;;
9986;SDS011;5033;46.310;11.214;2023-05-31T09:13:54;4.43;;;4.03;;
9986;SDS011;5033;46.310;11.214;2023-05-31T09:16:22;4.32;;;3.92;;
9986;SDS011;5033;46.310;11.214;2023-05-31T09:18:51;4.45;;;4.05;;
9986;SDS011;5033;46.310;11.214;2023-05-31T09:21:26;4.18;;;3.78;;
9986;SDS011;5033;46.310;11.214;2023-05-31T09:23:53;4.35;;;3.95;;
9986;SDS011;5033;46.310;11.214;2023-05-31T09:26:21;4.30;;;3.90;;
9986;SDS011;5033;46.310;11.214;2023-05-31T09:28:50;4.20;;;3.80;;
9986;SDS011;5033;46.310;11.214;2023-05-31T09:31:17;3.83;;;3.53;;
9986;SDS011;5033;46.310;11.214;2023-05-31T09:33:45;4.53;;;3.63;;
9986;SDS011;5033;46.310;11.214;2023-05-31T09:36:13;3.55;;;3.25;;
9986;SDS011;5033;46.310;11.214;2023-05-31T09:38:49;5.30;;;4.35;;
9986;SDS011;5033;46.310;11.214;2023-05-31T09:41:16;3.65;;;3.35;;
9986;SDS011;5033;46.310;11.214;2023-05-31T09:43:45;4.13;;;3.72;;
9986;SDS011;5033;46.310;11.214;2023-05-31T09:46:14;4.60;;;3.40;;
9986;SDS011;5033;46.310;11.214;2023-05-31T09:48:46;3.60;;;3.30;;
9986;SDS011;5033;46.310;11.214;2023-05-31T09:51:23;4.28;;;3.30;;
9986;SDS011;5033;46.310;11.214;2023-05-31T09:53:50;3.80;;;3.45;;
9986;SDS011;5033;46.310;11.214;2023-05-31T09:56:21;3.50;;;3.20;;
9986;SDS011;5033;46.310;11.214;2023-05-31T09:58:48;4.18;;;3.17;;
9986;SDS011;5033;46.310;11.214;2023-05-31T10:01:18;4.15;;;3.85;;
9986;SDS011;5033;46.310;11.214;2023-05-31T10:03:46;3.83;;;3.53;;
9986;SDS011;5033;46.310;11.214;2023-05-31T10:06:14;3.58;;;3.28;;
9986;SDS011;5033;46.310;11.214;2023-05-31T10:08:43;3.55;;;3.22;;
9986;SDS011;5033;46.310;11.214;2023-05-31T10:11:11;3.42;;;3.13;;
9986;SDS011;5033;46.310;11.214;2023-05-31T10:13:42;4.00;;;3.60;;
9986;SDS011;5033;46.310;11.214;2023-05-31T10:16:11;3.67;;;3.38;;
9986;SDS011;5033;46.310;11.214;2023-05-31T10:18:44;4.05;;;3.65;;
9986;SDS011;5033;46.310;11.214;2023-05-31T10:21:13;4.22;;;3.83;;
9986;SDS011;5033;46.310;11.214;2023-05-31T10:23:49;3.88;;;3.58;;
9986;SDS011;5033;46.310;11.214;2023-05-31T10:26:22;3.95;;;3.63;;
9986;SDS011;5033;46.310;11.214;2023-05-31T10:28:54;3.90;;;3.60;;
9986;SDS011;5033;46.310;11.214;2023-05-31T10:31:25;4.47;;;3.83;;
9986;SDS011;5033;46.310;11.214;2023-05-31T10:34:00;3.63;;;3.33;;
9986;SDS011;5033;46.310;11.214;2023-05-31T10:36:34;3.50;;;3.20;;
9986;SDS011;5033;46.310;11.214;2023-05-31T10:39:03;3.83;;;3.42;;
9986;SDS011;5033;46.310;11.214;2023-05-31T10:41:36;3.78;;;3.35;;
9986;SDS011;5033;46.310;11.214;2023-05-31T10:44:09;3.47;;;3.17;;
9986;SDS011;5033;46.310;11.214;2023-05-31T10:46:42;3.47;;;3.17;;
9986;SDS011;5033;46.310;11.214;2023-05-31T10:49:16;3.47;;;3.17;;
9986;SDS011;5033;46.310;11.214;2023-05-31T10:51:46;3.40;;;3.10;;
9986;SDS011;5033;46.310;11.214;2023-05-31T10:54:19;3.72;;;3.42;;
9986;SDS011;5033;46.310;11.214;2023-05-31T10:59:29;3.15;;;2.90;;
9986;SDS011;5033;46.310;11.214;2023-05-31T11:02:05;3.22;;;2.92;;
9986;SDS011;5033;46.310;11.214;2023-05-31T11:04:36;4.05;;;3.10;;
9986;SDS011;5033;46.310;11.214;2023-05-31T11:07:12;3.72;;;3.42;;
9986;SDS011;5033;46.310;11.214;2023-05-31T11:09:53;3.83;;;3.13;;
9986;SDS011;5033;46.310;11.214;2023-05-31T11:12:31;3.80;;;3.47;;
9986;SDS011;5033;46.310;11.214;2023-05-31T11:15:00;3.53;;;3.22;;
9986;SDS011;5033;46.310;11.214;2023-05-31T11:17:28;3.65;;;3.35;;
9986;SDS011;5033;46.310;11.214;2023-05-31T11:19:57;3.53;;;3.22;;
9986;SDS011;5033;46.310;11.214;2023-05-31T11:22:25;3.50;;;3.20;;
9986;SDS011;5033;46.310;11.214;2023-05-31T11:24:53;3.10;;;2.83;;
9986;SDS011;5033;46.310;11.214;2023-05-31T11:27:23;3.38;;;3.08;;
9986;SDS011;5033;46.310;11.214;2023-05-31T11:30:01;2.90;;;2.70;;
9986;SDS011;5033;46.310;11.214;2023-05-31T11:35:23;3.60;;;3.30;;
9986;SDS011;5033;46.310;11.214;2023-05-31T11:37:58;3.67;;;3.38;;
9986;SDS011;5033;46.310;11.214;2023-05-31T11:40:27;3.83;;;3.53;;
9986;SDS011;5033;46.310;11.214;2023-05-31T11:42:55;3.92;;;3.60;;
9986;SDS011;5033;46.310;11.214;2023-05-31T11:45:30;3.58;;;3.22;;
9986;SDS011;5033;46.310;11.214;2023-05-31T11:47:59;4.35;;;3.65;;
9986;SDS011;5033;46.310;11.214;2023-05-31T11:50:37;4.63;;;3.70;;
9986;SDS011;5033;46.310;11.214;2023-05-31T11:53:04;3.78;;;3.47;;
9986;SDS011;5033;46.310;11.214;2023-05-31T11:55:33;3.60;;;3.30;;
9986;SDS011;5033;46.310;11.214;2023-05-31T11:58:04;5.00;;;3.83;;
9986;SDS011;5033;46.310;11.214;2023-05-31T12:00:32;3.70;;;3.40;;
9986;SDS011;5033;46.310;11.214;2023-05-31T12:02:59;4.25;;;3.72;;
9986;SDS011;5033;46.310;11.214;2023-05-31T12:05:29;3.70;;;3.40;;
9986;SDS011;5033;46.310;11.214;2023-05-31T12:07:58;4.90;;;3.50;;
9986;SDS011;5033;46.310;11.214;2023-05-31T12:10:25;6.00;;;3.45;;
9986;SDS011;5033;46.310;11.214;2023-05-31T12:12:53;4.00;;;3.70;;
9986;SDS011;5033;46.310;11.214;2023-05-31T12:15:20;3.42;;;3.13;;
9986;SDS011;5033;46.310;11.214;2023-05-31T12:17:47;3.33;;;3.03;;
9986;SDS011;5033;46.310;11.214;2023-05-31T12:20:14;3.90;;;3.55;;
9986;SDS011;5033;46.310;11.214;2023-05-31T12:22:41;4.03;;;3.72;;
9986;SDS011;5033;46.310;11.214;2023-05-31T12:25:09;3.92;;;3.63;;
9986;SDS011;5033;46.310;11.214;2023-05-31T12:27:37;4.13;;;3.70;;
9986;SDS011;5033;46.310;11.214;2023-05-31T12:30:04;3.50;;;2.88;;
9986;SDS011;5033;46.310;11.214;2023-05-31T12:32:32;3.92;;;3.53;;
9986;SDS011;5033;46.310;11.214;2023-05-31T12:35:03;3.47;;;3.17;;
9986;SDS011;5033;46.310;11.214;2023-05-31T12:37:34;3.20;;;2.90;;
9986;SDS011;5033;46.310;11.214;2023-05-31T12:40:09;3.45;;;3.15;;
9986;SDS011;5033;46.310;11.214;2023-05-31T12:42:37;3.60;;;3.28;;
9986;SDS011;5033;46.310;11.214;2023-05-31T12:45:04;4.53;;;3.50;;
9986;SDS011;5033;46.310;11.214;2023-05-31T12:47:32;4.30;;;3.75;;
9986;SDS011;5033;46.310;11.214;2023-05-31T12:50:00;3.72;;;3.00;;
9986;SDS011;5033;46.310;11.214;2023-05-31T12:52:30;3.97;;;3.00;;
9986;SDS011;5033;46.310;11.214;2023-05-31T12:54:58;3.42;;;3.10;;
9986;SDS011;5033;46.310;11.214;2023-05-31T12:57:28;3.50;;;3.17;;
9986;SDS011;5033;46.310;11.214;2023-05-31T12:59:58;3.60;;;2.70;;
9986;SDS011;5033;46.310;11.214;2023-05-31T13:02:25;2.72;;;2.50;;
9986;SDS011;5033;46.310;11.214;2023-05-31T13:04:53;3.25;;;2.95;;
9986;SDS011;5033;46.310;11.214;2023-05-31T13:07:21;3.38;;;3.08;;
9986;SDS011;5033;46.310;11.214;2023-05-31T13:09:48;3.00;;;2.80;;
9986;SDS011;5033;46.310;11.214;2023-05-31T13:12:14;3.13;;;2.83;;
9986;SDS011;5033;46.310;11.214;2023-05-31T13:14:43;5.35;;;3.42;;
9986;SDS011;5033;46.310;11.214;2023-05-31T13:17:10;3.08;;;2.88;;
9986;SDS011;5033;46.310;11.214;2023-05-31T13:19:37;3.90;;;3.60;;
9986;SDS011;5033;46.310;11.214;2023-05-31T13:22:04;3.60;;;3.30;;
9986;SDS011;5033;46.310;11.214;2023-05-31T13:24:32;3.50;;;3.20;;
9986;SDS011;5033;46.310;11.214;2023-05-31T13:26:59;3.60;;;3.03;;
9986;SDS011;5033;46.310;11.214;2023-05-31T13:29:26;4.68;;;3.45;;
9986;SDS011;5033;46.310;11.214;2023-05-31T13:31:54;3.60;;;3.10;;
9986;SDS011;5033;46.310;11.214;2023-05-31T13:34:23;3.58;;;3.28;;
9986;SDS011;5033;46.310;11.214;2023-05-31T13:36:50;3.30;;;3.00;;
9986;SDS011;5033;46.310;11.214;2023-05-31T13:39:21;3.53;;;3.22;;
9986;SDS011;5033;46.310;11.214;2023-05-31T13:41:48;4.85;;;3.35;;
9986;SDS011;5033;46.310;11.214;2023-05-31T13:44:14;3.83;;;3.45;;
9986;SDS011;5033;46.310;11.214;2023-05-31T13:46:42;3.47;;;3.17;;
9986;SDS011;5033;46.310;11.214;2023-05-31T13:49:10;4.05;;;3.20;;
9986;SDS011;5033;46.310;11.214;2023-05-31T13:51:40;3.72;;;3.33;;
9986;SDS011;5033;46.310;11.214;2023-05-31T13:54:07;3.88;;;3.53;;
9986;SDS011;5033;46.310;11.214;2023-05-31T13:56:34;4.25;;;3.50;;
9986;SDS011;5033;46.310;11.214;2023-05-31T13:59:03;3.90;;;3.45;;
9986;SDS011;5033;46.310;11.214;2023-05-31T14:01:30;5.40;;;3.30;;
9986;SDS011;5033;46.310;11.214;2023-05-31T14:03:57;3.45;;;3.15;;
9986;SDS011;5033;46.310;11.214;2023-05-31T14:06:25;3.42;;;3.13;;
9986;SDS011;5033;46.310;11.214;2023-05-31T14:08:53;4.03;;;3.03;;
9986;SDS011;5033;46.310;11.214;2023-05-31T14:11:20;3.33;;;3.03;;
9986;SDS011;5033;46.310;11.214;2023-05-31T14:13:48;3.42;;;3.13;;
9986;SDS011;5033;46.310;11.214;2023-05-31T14:16:16;3.13;;;2.83;;
9986;SDS011;5033;46.310;11.214;2023-05-31T14:18:43;4.05;;;3.17;;
9986;SDS011;5033;46.310;11.214;2023-05-31T14:21:10;3.70;;;3.40;;
9986;SDS011;5033;46.310;11.214;2023-05-31T14:23:38;3.92;;;3.55;;
9986;SDS011;5033;46.310;11.214;2023-05-31T14:26:05;4.18;;;3.78;;
9986;SDS011;5033;46.310;11.214;2023-05-31T14:28:32;8.25;;;3.63;;
9986;SDS011;5033;46.310;11.214;2023-05-31T14:31:00;4.78;;;4.13;;
9986;SDS011;5033;46.310;11.214;2023-05-31T14:33:27;4.38;;;3.97;;
9986;SDS011;5033;46.310;11.214;2023-05-31T14:35:54;4.13;;;3.83;;
9986;SDS011;5033;46.310;11.214;2023-05-31T14:38:21;3.85;;;3.55;;
9986;SDS011;5033;46.310;11.214;2023-05-31T14:40:50;5.35;;;3.35;;
9986;SDS011;5033;46.310;11.214;2023-05-31T14:43:17;3.50;;;3.20;;
9986;SDS011;5033;46.310;11.214;2023-05-31T14:45:44;4.07;;;3.67;;
9986;SDS011;5033;46.310;11.214;2023-05-31T14:48:12;4.32;;;3.92;;
9986;SDS011;5033;46.310;11.214;2023-05-31T14:50:39;4.20;;;3.72;;
9986;SDS011;5033;46.310;11.214;2023-05-31T14:53:06;3.40;;;3.10;;
9986;SDS011;5033;46.310;11.214;2023-05-31T14:55:36;3.40;;;3.10;;
9986;SDS011;5033;46.310;11.214;2023-05-31T14:58:05;3.22;;;3.00;;
9986;SDS011;5033;46.310;11.214;2023-05-31T15:00:32;4.72;;;4.22;;
9986;SDS011;5033;46.310;11.214;2023-05-31T15:03:00;4.07;;;3.67;;
9986;SDS011;5033;46.310;11.214;2023-05-31T15:05:27;4.13;;;3.72;;
9986;SDS011;5033;46.310;11.214;2023-05-31T15:07:54;4.95;;;4.45;;
9986;SDS011;5033;46.310;11.214;2023-05-31T15:10:21;5.47;;;4.10;;
9986;SDS011;5033;46.310;11.214;2023-05-31T15:12:51;3.90;;;3.60;;